createdAt,value
2022-12-14T00:00:44.512Z,99.95
2022-12-14T00:03:11.862Z,99.89
2022-12-14T00:05:38.663Z,99.45
2022-12-14T00:08:05.153Z,99.20
2022-12-14T00:10:33.574Z,99.23
2022-12-14T00:13:00.656Z,98.81
2022-12-14T00:15:27.328Z,98.67
2022-12-14T00:17:53.674Z,98.55
2022-12-14T00:20:20.441Z,98.72
2022-12-14T00:22:46.821Z,98.51
2022-12-14T00:25:13.172Z,98.44
2022-12-14T00:27:46.401Z,98.55
2022-12-14T00:30:14.549Z,98.14
2022-12-14T00:32:40.911Z,98.17
2022-12-14T00:35:09.263Z,98.15
2022-12-14T00:37:36.521Z,97.96
2022-12-14T00:40:04.942Z,97.80
2022-12-14T00:42:31.337Z,97.35
2022-12-14T00:44:58.058Z,97.57
2022-12-14T00:47:24.558Z,97.78
2022-12-14T00:49:50.884Z,97.92
2022-12-14T00:52:17.261Z,98.57
2022-12-14T00:54:43.708Z,98.77
2022-12-14T00:57:10.073Z,98.75
2022-12-14T00:59:36.486Z,98.83
2022-12-14T01:02:03.608Z,98.94
2022-12-14T01:04:30.322Z,98.94
2022-12-14T01:06:56.592Z,98.83
2022-12-14T01:09:25.107Z,98.84
2022-12-14T01:11:51.555Z,98.94
2022-12-14T01:14:19.413Z,98.66
2022-12-14T01:16:45.845Z,99.27
2022-12-14T01:19:13.611Z,99.30
2022-12-14T01:21:40.255Z,99.37
2022-12-14T01:24:07.033Z,99.18
2022-12-14T01:26:37.984Z,99.21
2022-12-14T01:29:05.539Z,99.02
2022-12-14T01:31:34.672Z,98.67
2022-12-14T01:34:01.567Z,98.35
2022-12-14T01:36:30.477Z,97.92
2022-12-14T01:39:15.772Z,97.53
2022-12-14T01:41:43.359Z,98.06
2022-12-14T01:44:09.623Z,97.39
2022-12-14T01:46:44.619Z,97.92
2022-12-14T01:49:25.758Z,98.77
2022-12-14T01:51:59.022Z,99.52
2022-12-14T01:54:28.915Z,100.00
2022-12-14T01:56:55.836Z,100.00
2022-12-14T01:59:27.072Z,100.00
2022-12-14T02:01:55.028Z,100.00
2022-12-14T02:04:21.853Z,100.00
2022-12-14T02:06:50.256Z,100.00
2022-12-14T02:09:20.773Z,100.00
2022-12-14T02:12:08.519Z,100.00
2022-12-14T02:14:35.415Z,100.00
2022-12-14T02:17:02.399Z,98.92
2022-12-14T02:19:28.861Z,99.05
2022-12-14T02:22:01.266Z,99.09
2022-12-14T02:24:34.625Z,96.83
2022-12-14T02:27:19.868Z,96.95
2022-12-14T02:30:10.856Z,96.89
2022-12-14T02:32:40.169Z,97.11
2022-12-14T02:35:26.566Z,98.63
2022-12-14T02:38:29.992Z,100.00
2022-12-14T02:41:33.965Z,100.00
2022-12-14T02:44:22.040Z,100.00
2022-12-14T02:46:57.684Z,100.00
2022-12-14T02:49:49.181Z,100.00
2022-12-14T02:52:44.839Z,100.00
2022-12-14T02:55:22.033Z,100.00
2022-12-14T02:57:51.815Z,100.00
2022-12-14T03:00:19.386Z,100.00
2022-12-14T03:02:48.420Z,99.55
2022-12-14T03:05:15.034Z,99.19
2022-12-14T03:07:48.898Z,99.80
2022-12-14T03:10:37.097Z,100.00
2022-12-14T03:13:06.331Z,100.00
2022-12-14T03:15:36.513Z,100.00
2022-12-14T03:18:06.184Z,100.00
2022-12-14T03:20:35.488Z,100.00
2022-12-14T03:23:12.200Z,100.00
2022-12-14T03:25:44.904Z,100.00
2022-12-14T03:28:18.213Z,100.00
2022-12-14T03:31:06.183Z,100.00
2022-12-14T03:33:34.997Z,100.00
2022-12-14T03:36:17.123Z,100.00
2022-12-14T03:38:50.008Z,100.00
2022-12-14T03:41:31.258Z,100.00
2022-12-14T03:44:34.096Z,100.00
2022-12-14T03:47:19.195Z,100.00
2022-12-14T03:50:11.310Z,100.00
2022-12-14T03:52:52.964Z,100.00
2022-12-14T03:55:29.649Z,100.00
2022-12-14T03:58:18.838Z,100.00
2022-12-14T04:00:50.971Z,100.00
2022-12-14T04:04:02.125Z,100.00
2022-12-14T04:06:40.714Z,100.00
2022-12-14T04:09:27.264Z,100.00
2022-12-14T04:12:04.210Z,100.00
2022-12-14T04:14:36.631Z,100.00
2022-12-14T04:17:09.002Z,100.00
2022-12-14T04:19:45.430Z,100.00
2022-12-14T04:22:19.369Z,100.00
2022-12-14T04:24:52.853Z,100.00
2022-12-14T04:27:27.184Z,100.00
2022-12-14T04:29:55.403Z,100.00
2022-12-14T04:32:24.690Z,100.00
2022-12-14T04:34:59.520Z,100.00
2022-12-14T04:37:28.143Z,100.00
2022-12-14T04:40:16.792Z,100.00
2022-12-14T04:42:51.914Z,100.00
2022-12-14T04:45:26.325Z,100.00
2022-12-14T04:48:00.194Z,100.00
2022-12-14T04:50:35.554Z,100.00
2022-12-14T04:53:13.747Z,100.00
2022-12-14T04:55:48.935Z,100.00
2022-12-14T04:58:24.387Z,100.00
2022-12-14T05:01:12.454Z,100.00
2022-12-14T05:03:54.172Z,100.00
2022-12-14T05:06:37.533Z,100.00
2022-12-14T05:09:09.895Z,100.00
2022-12-14T05:11:57.213Z,100.00
2022-12-14T05:15:08.604Z,100.00
2022-12-14T05:17:37.185Z,100.00
2022-12-14T05:20:04.385Z,100.00
2022-12-14T05:22:30.808Z,100.00
2022-12-14T05:24:57.160Z,100.00
2022-12-14T05:27:23.622Z,100.00
2022-12-14T05:29:49.960Z,100.00
2022-12-14T05:32:16.325Z,100.00
2022-12-14T05:34:42.658Z,100.00
2022-12-14T05:37:14.613Z,100.00
2022-12-14T05:39:44.227Z,100.00
2022-12-14T05:42:10.553Z,100.00
2022-12-14T05:44:36.918Z,100.00
2022-12-14T05:47:03.385Z,100.00
2022-12-14T05:49:29.769Z,100.00
2022-12-14T05:51:56.075Z,100.00
2022-12-14T05:54:22.503Z,100.00
2022-12-14T05:56:48.918Z,100.00
2022-12-14T05:59:16.518Z,100.00
2022-12-14T06:01:45.047Z,100.00
2022-12-14T06:04:16.109Z,100.00
2022-12-14T06:06:43.026Z,100.00
2022-12-14T06:09:10.925Z,100.00
2022-12-14T06:11:39.249Z,100.00
2022-12-14T06:14:05.766Z,100.00
2022-12-14T06:16:32.112Z,100.00
2022-12-14T06:19:00.212Z,100.00
2022-12-14T06:21:29.087Z,100.00
2022-12-14T06:23:56.827Z,100.00
2022-12-14T06:26:23.942Z,100.00
2022-12-14T06:28:50.507Z,100.00
2022-12-14T06:31:19.769Z,100.00
2022-12-14T06:33:47.979Z,100.00
2022-12-14T06:36:17.075Z,100.00
2022-12-14T06:38:43.377Z,100.00
2022-12-14T06:41:11.968Z,100.00
2022-12-14T06:43:38.505Z,100.00
2022-12-14T06:46:14.826Z,100.00
2022-12-14T06:48:42.162Z,100.00
2022-12-14T06:51:08.873Z,100.00
2022-12-14T06:53:36.034Z,100.00
2022-12-14T06:56:10.452Z,100.00
2022-12-14T06:58:37.343Z,100.00
2022-12-14T07:01:05.964Z,100.00
2022-12-14T07:03:32.856Z,100.00
2022-12-14T07:06:00.860Z,100.00
2022-12-14T07:08:29.181Z,100.00
2022-12-14T07:11:01.960Z,100.00
2022-12-14T07:13:29.304Z,100.00
2022-12-14T07:15:57.453Z,100.00
2022-12-14T07:18:24.256Z,100.00
2022-12-14T07:21:00.740Z,100.00
2022-12-14T07:23:29.682Z,100.00
2022-12-14T07:26:04.156Z,100.00
2022-12-14T07:28:30.970Z,100.00
2022-12-14T07:30:58.099Z,100.00
2022-12-14T07:33:25.732Z,100.00
2022-12-14T07:35:52.737Z,100.00
2022-12-14T07:38:19.062Z,100.00
2022-12-14T07:40:45.429Z,100.00
2022-12-14T07:43:11.784Z,100.00
2022-12-14T07:45:38.130Z,100.00
2022-12-14T07:48:06.726Z,100.00
2022-12-14T07:50:33.042Z,100.00
2022-12-14T07:52:59.410Z,100.00
2022-12-14T07:55:25.727Z,100.00
2022-12-14T07:57:52.024Z,100.00
2022-12-14T08:00:18.665Z,100.00
2022-12-14T08:02:45.014Z,100.00
2022-12-14T08:05:12.743Z,100.00
2022-12-14T08:07:39.295Z,100.00
2022-12-14T08:10:06.082Z,100.00
2022-12-14T08:12:32.352Z,100.00
2022-12-14T08:14:58.668Z,100.00
2022-12-14T08:17:25.081Z,100.00
2022-12-14T08:19:51.433Z,100.00
2022-12-14T08:22:17.808Z,100.00
2022-12-14T08:24:44.117Z,100.00
2022-12-14T08:27:15.826Z,100.00
2022-12-14T08:29:42.187Z,100.00
2022-12-14T08:32:08.508Z,100.00
2022-12-14T08:34:34.829Z,100.00
2022-12-14T08:37:01.147Z,100.00
2022-12-14T08:39:27.514Z,100.00
2022-12-14T08:41:53.871Z,100.00
2022-12-14T08:44:20.182Z,100.00
2022-12-14T08:46:46.553Z,100.00
2022-12-14T08:49:12.986Z,100.00
2022-12-14T08:51:39.304Z,100.00
2022-12-14T08:54:05.850Z,100.00
2022-12-14T08:56:32.176Z,100.00
2022-12-14T08:58:58.467Z,100.00
2022-12-14T09:01:32.739Z,100.00
2022-12-14T09:04:08.170Z,100.00
2022-12-14T09:06:38.352Z,100.00
2022-12-14T09:09:15.205Z,100.00
2022-12-14T09:11:42.909Z,100.00
2022-12-14T09:14:09.434Z,100.00
2022-12-14T09:16:36.584Z,100.00
2022-12-14T09:19:03.187Z,100.00
2022-12-14T09:21:29.491Z,100.00
2022-12-14T09:23:59.591Z,100.00
2022-12-14T09:26:27.443Z,100.00
2022-12-14T09:28:56.380Z,100.00
2022-12-14T09:31:24.621Z,100.00
2022-12-14T09:33:51.305Z,100.00
2022-12-14T09:36:20.130Z,100.00
2022-12-14T09:38:51.089Z,100.00
2022-12-14T09:41:38.340Z,100.00
2022-12-14T09:44:23.552Z,100.00
2022-12-14T09:47:03.587Z,100.00
2022-12-14T09:49:33.631Z,100.00
2022-12-14T09:52:03.306Z,100.00
2022-12-14T09:54:33.292Z,100.00
2022-12-14T09:57:07.068Z,100.00
2022-12-14T09:59:33.903Z,100.00
2022-12-14T10:02:30.820Z,100.00
2022-12-14T10:05:10.225Z,100.00
2022-12-14T10:07:50.481Z,99.50
2022-12-14T10:10:24.387Z,100.00
2022-12-14T10:13:10.736Z,99.07
2022-12-14T10:15:53.127Z,98.14
2022-12-14T10:19:02.858Z,97.71
2022-12-14T10:22:14.806Z,97.77
2022-12-14T10:25:12.677Z,97.00
2022-12-14T10:28:09.149Z,99.14
2022-12-14T10:30:29.140Z,97.20
2022-12-14T10:33:16.496Z,100.00
2022-12-14T10:35:56.484Z,98.64
2022-12-14T10:38:37.171Z,99.70
2022-12-14T10:41:12.719Z,95.09
2022-12-14T10:43:51.902Z,93.16
2022-12-14T10:46:44.572Z,95.44
2022-12-14T10:49:19.978Z,97.36
2022-12-14T10:52:16.136Z,92.21
2022-12-14T10:55:01.933Z,94.87
2022-12-14T10:57:29.364Z,94.73
2022-12-14T11:00:08.478Z,93.00
2022-12-14T11:02:41.580Z,96.50
2022-12-14T11:05:22.081Z,90.64
2022-12-14T11:07:48.413Z,88.75
2022-12-14T11:10:44.373Z,92.13
2022-12-14T11:13:13.454Z,89.80
2022-12-14T11:15:45.977Z,88.78
2022-12-14T11:18:12.351Z,90.60
2022-12-14T11:21:14.602Z,90.86
2022-12-14T11:23:44.928Z,86.37
2022-12-14T11:26:40.173Z,89.10
2022-12-14T11:29:30.767Z,86.20
2022-12-14T11:31:57.279Z,90.41
2022-12-14T11:34:41.091Z,91.53
2022-12-14T11:37:29.762Z,85.62
2022-12-14T11:40:05.472Z,88.29
2022-12-14T11:42:32.342Z,90.04
2022-12-14T11:45:26.823Z,88.55
2022-12-14T11:48:15.182Z,86.78
2022-12-14T11:50:42.422Z,85.99
2022-12-14T11:53:14.414Z,88.67
2022-12-14T11:55:45.345Z,86.82
2022-12-14T11:58:35.265Z,86.56
2022-12-14T12:01:22.462Z,87.81
2022-12-14T12:03:51.827Z,89.90
2022-12-14T12:06:24.194Z,88.04
2022-12-14T12:08:59.496Z,89.16
2022-12-14T12:11:34.490Z,88.31
2022-12-14T12:14:07.048Z,88.30
2022-12-14T12:16:33.423Z,87.38
2022-12-14T12:19:32.064Z,87.58
2022-12-14T12:22:01.700Z,88.45
2022-12-14T12:24:55.143Z,87.85
2022-12-14T12:27:25.798Z,88.72
2022-12-14T12:30:12.906Z,89.52
2022-12-14T12:32:50.116Z,89.44
2022-12-14T12:35:22.589Z,89.68
2022-12-14T12:37:55.783Z,88.98
2022-12-14T12:40:33.264Z,90.75
2022-12-14T12:43:11.589Z,91.14
2022-12-14T12:45:47.106Z,90.69
2022-12-14T12:48:40.222Z,90.14
2022-12-14T12:51:21.197Z,89.99
2022-12-14T12:54:09.016Z,90.16
2022-12-14T12:57:02.565Z,90.32
2022-12-14T12:59:39.774Z,90.97
2022-12-14T13:02:33.388Z,91.12
2022-12-14T13:05:37.270Z,91.78
2022-12-14T13:08:05.565Z,91.16
2022-12-14T13:10:41.957Z,92.14
2022-12-14T13:13:12.253Z,91.03
2022-12-14T13:15:47.182Z,90.68
2022-12-14T13:18:56.733Z,90.33
2022-12-14T13:21:32.679Z,91.21
2022-12-14T13:23:59.580Z,90.69
2022-12-14T13:26:57.137Z,90.98
2022-12-14T13:29:33.699Z,90.78
2022-12-14T13:32:21.266Z,90.56
2022-12-14T13:35:04.170Z,90.89
2022-12-14T13:37:39.266Z,91.45
2022-12-14T13:40:28.354Z,91.74
2022-12-14T13:43:03.403Z,91.17
2022-12-14T13:45:41.373Z,91.14
2022-12-14T13:48:24.033Z,90.94
2022-12-14T13:51:03.553Z,90.81
2022-12-14T13:53:51.255Z,90.98
2022-12-14T13:56:31.055Z,90.78
2022-12-14T13:59:01.567Z,90.30
2022-12-14T14:01:46.243Z,90.28
2022-12-14T14:04:12.733Z,90.43
2022-12-14T14:06:43.841Z,91.06
2022-12-14T14:09:28.466Z,91.25
2022-12-14T14:11:56.156Z,90.84
2022-12-14T14:14:44.915Z,90.40
2022-12-14T14:17:40.841Z,90.78
2022-12-14T14:20:28.785Z,90.88
2022-12-14T14:23:13.506Z,91.09
2022-12-14T14:25:42.709Z,91.65
2022-12-14T14:28:19.135Z,92.27
2022-12-14T14:30:53.575Z,92.13
2022-12-14T14:33:48.835Z,92.39
2022-12-14T14:36:30.577Z,92.62
2022-12-14T14:39:02.024Z,92.58
2022-12-14T14:41:35.885Z,92.72
2022-12-14T14:44:07.544Z,93.04
2022-12-14T14:46:42.378Z,93.14
2022-12-14T14:49:22.445Z,93.59
2022-12-14T14:51:48.790Z,93.81
2022-12-14T14:54:46.267Z,93.67
2022-12-14T14:57:34.735Z,93.88
2022-12-14T15:00:01.780Z,93.75
2022-12-14T15:02:34.229Z,93.72
2022-12-14T15:05:17.952Z,93.88
2022-12-14T15:07:48.563Z,93.81
2022-12-14T15:10:29.694Z,93.99
2022-12-14T15:13:02.122Z,93.99
2022-12-14T15:15:37.151Z,93.93
2022-12-14T15:18:24.948Z,93.67
2022-12-14T15:21:03.835Z,93.80
2022-12-14T15:23:37.008Z,94.10
2022-12-14T15:26:16.058Z,94.26
2022-12-14T15:28:46.968Z,93.97
2022-12-14T15:31:14.122Z,93.71
2022-12-14T15:33:42.745Z,93.90
2022-12-14T15:36:15.186Z,94.23
2022-12-14T15:38:54.345Z,94.17
2022-12-14T15:41:23.167Z,94.46
2022-12-14T15:43:53.728Z,94.92
2022-12-14T15:46:35.255Z,95.91
2022-12-14T15:49:03.919Z,96.49
2022-12-14T15:51:37.921Z,96.25
2022-12-14T15:54:06.985Z,96.58
2022-12-14T15:56:39.359Z,97.11
2022-12-14T15:59:30.126Z,97.17
2022-12-14T16:02:04.780Z,97.08
2022-12-14T16:04:33.492Z,95.94
2022-12-14T16:07:08.629Z,96.16
2022-12-14T16:09:51.690Z,95.89
2022-12-14T16:12:21.083Z,96.41
2022-12-14T16:14:51.132Z,96.25
2022-12-14T16:17:22.850Z,96.66
2022-12-14T16:19:59.849Z,96.60
2022-12-14T16:22:31.409Z,96.39
2022-12-14T16:25:02.799Z,96.25
2022-12-14T16:27:30.668Z,96.30
2022-12-14T16:30:15.812Z,96.47
2022-12-14T16:32:42.955Z,96.23
2022-12-14T16:35:22.542Z,96.47
2022-12-14T16:37:50.181Z,96.12
2022-12-14T16:40:30.136Z,96.11
2022-12-14T16:42:56.476Z,96.24
2022-12-14T16:45:41.211Z,97.08
2022-12-14T16:48:08.968Z,96.00
2022-12-14T16:53:26.093Z,96.07
2022-12-14T16:56:17.455Z,96.33
2022-12-14T16:59:00.488Z,96.77
2022-12-14T17:01:27.548Z,96.76
2022-12-14T17:04:00.652Z,96.75
2022-12-14T17:06:36.343Z,97.64
2022-12-14T17:09:04.204Z,98.23
2022-12-14T17:11:30.699Z,98.55
2022-12-14T17:13:57.076Z,99.11
2022-12-14T17:16:23.645Z,99.08
2022-12-14T17:18:50.059Z,99.10
2022-12-14T17:21:23.769Z,99.21
2022-12-14T17:23:50.322Z,98.96
2022-12-14T17:26:25.853Z,98.45
2022-12-14T17:28:52.714Z,98.16
2022-12-14T17:31:21.310Z,98.26
2022-12-14T17:33:48.202Z,98.34
2022-12-14T17:36:14.579Z,98.27
2022-12-14T17:38:40.970Z,98.35
2022-12-14T17:41:11.042Z,98.05
2022-12-14T17:43:37.345Z,97.93
2022-12-14T17:46:03.779Z,98.04
2022-12-14T17:48:30.205Z,98.01
2022-12-14T17:50:56.651Z,97.81
2022-12-14T17:53:29.964Z,97.93
2022-12-14T17:55:56.687Z,98.60
2022-12-14T17:58:23.098Z,98.63
2022-12-14T18:00:49.509Z,98.64
2022-12-14T18:03:17.750Z,99.09
2022-12-14T18:05:48.857Z,99.32
2022-12-14T18:08:25.122Z,99.43
2022-12-14T18:10:55.483Z,99.37
2022-12-14T18:13:21.872Z,99.87
2022-12-14T18:15:50.728Z,100.00
2022-12-14T18:18:21.904Z,100.00
2022-12-14T18:20:51.373Z,100.00
2022-12-14T18:23:19.199Z,100.00
2022-12-14T18:25:56.951Z,100.00
2022-12-14T18:28:23.359Z,100.00
2022-12-14T18:30:53.241Z,99.88
2022-12-14T18:33:23.957Z,99.90
2022-12-14T18:35:52.490Z,99.72
2022-12-14T18:38:19.105Z,99.75
2022-12-14T18:40:49.978Z,99.57
2022-12-14T18:43:22.735Z,99.62
2022-12-14T18:45:50.919Z,99.75
2022-12-14T18:48:17.498Z,99.78
2022-12-14T18:50:45.235Z,99.75
2022-12-14T18:53:16.050Z,100.00
2022-12-14T18:55:43.407Z,100.00
2022-12-14T18:58:16.215Z,100.00
2022-12-14T19:00:42.692Z,100.00
2022-12-14T19:03:09.165Z,100.00
2022-12-14T19:05:35.882Z,100.00
2022-12-14T19:08:02.138Z,100.00
2022-12-14T19:10:31.198Z,100.00
2022-12-14T19:12:58.162Z,100.00
2022-12-14T19:15:32.654Z,100.00
2022-12-14T19:17:59.235Z,100.00
2022-12-14T19:20:26.745Z,100.00
2022-12-14T19:22:53.455Z,100.00
2022-12-14T19:25:21.803Z,100.00
2022-12-14T19:30:34.883Z,99.82
2022-12-14T19:33:01.233Z,98.80
2022-12-14T19:35:27.729Z,98.52
2022-12-14T19:37:54.206Z,97.99
2022-12-14T19:40:20.871Z,98.28
2022-12-14T19:42:47.270Z,99.09
2022-12-14T19:45:14.427Z,100.00
2022-12-14T19:47:40.918Z,100.00
2022-12-14T19:50:07.827Z,100.00
2022-12-14T19:52:34.238Z,100.00
2022-12-14T19:55:01.639Z,100.00
2022-12-14T19:57:28.210Z,99.96
2022-12-14T19:59:54.553Z,99.50
2022-12-14T20:02:20.978Z,100.00
2022-12-14T20:04:47.397Z,100.00
2022-12-14T20:07:13.711Z,100.00
2022-12-14T20:09:40.042Z,100.00
2022-12-14T20:12:06.573Z,100.00
2022-12-14T20:14:33.020Z,100.00
2022-12-14T20:16:59.350Z,100.00
2022-12-14T20:19:25.694Z,100.00
2022-12-14T20:21:52.021Z,100.00
2022-12-14T20:24:18.385Z,100.00
2022-12-14T20:26:44.725Z,100.00
2022-12-14T20:29:11.044Z,100.00
2022-12-14T20:31:37.608Z,100.00
2022-12-14T20:34:05.263Z,100.00
2022-12-14T20:36:31.802Z,100.00
2022-12-14T20:39:00.351Z,100.00
2022-12-14T20:41:28.079Z,100.00
2022-12-14T20:43:54.911Z,100.00
2022-12-14T20:46:33.525Z,100.00
2022-12-14T20:49:02.910Z,100.00
2022-12-14T20:51:31.114Z,100.00
2022-12-14T20:53:57.490Z,100.00
2022-12-14T20:56:24.664Z,100.00
2022-12-14T20:58:51.075Z,100.00
2022-12-14T21:01:18.742Z,100.00
2022-12-14T21:03:46.215Z,100.00
2022-12-14T21:06:18.567Z,100.00
2022-12-14T21:08:45.091Z,100.00
2022-12-14T21:11:15.594Z,100.00
2022-12-14T21:13:41.926Z,100.00
2022-12-14T21:16:09.447Z,100.00
2022-12-14T21:18:35.755Z,100.00
2022-12-14T21:21:05.765Z,100.00
2022-12-14T21:23:32.946Z,100.00
2022-12-14T21:26:04.327Z,100.00
2022-12-14T21:28:32.344Z,100.00
2022-12-14T21:31:06.553Z,100.00
2022-12-14T21:33:33.316Z,100.00
2022-12-14T21:35:59.862Z,100.00
2022-12-14T21:38:27.659Z,100.00
2022-12-14T21:40:55.049Z,100.00
2022-12-14T21:43:21.461Z,100.00
2022-12-14T21:45:51.159Z,100.00
2022-12-14T21:48:17.527Z,100.00
2022-12-14T21:50:43.863Z,100.00
2022-12-14T21:53:10.181Z,100.00
2022-12-14T21:55:36.511Z,100.00
2022-12-14T21:58:02.824Z,100.00
2022-12-14T22:00:29.170Z,100.00
2022-12-14T22:02:55.598Z,100.00
2022-12-14T22:05:22.172Z,100.00
2022-12-14T22:07:48.487Z,100.00
2022-12-14T22:10:16.765Z,100.00
2022-12-14T22:12:46.339Z,100.00
2022-12-14T22:15:12.671Z,100.00
2022-12-14T22:17:38.956Z,100.00
2022-12-14T22:20:05.844Z,100.00
2022-12-14T22:22:32.227Z,100.00
2022-12-14T22:24:58.542Z,100.00
2022-12-14T22:27:24.940Z,100.00
2022-12-14T22:29:51.268Z,100.00
2022-12-14T22:32:17.682Z,100.00
2022-12-14T22:34:44.079Z,100.00
2022-12-14T22:37:14.009Z,100.00
2022-12-14T22:39:40.314Z,100.00
2022-12-14T22:42:06.641Z,100.00
2022-12-14T22:44:32.941Z,100.00
2022-12-14T22:46:59.308Z,100.00
2022-12-14T22:49:25.642Z,100.00
2022-12-14T22:51:52.041Z,100.00
2022-12-14T22:54:25.931Z,100.00
2022-12-14T22:57:02.815Z,100.00
2022-12-14T22:59:35.475Z,100.00
2022-12-14T23:02:02.273Z,100.00
2022-12-14T23:04:28.856Z,100.00
2022-12-14T23:06:55.257Z,100.00
2022-12-14T23:09:22.021Z,100.00
2022-12-14T23:11:48.277Z,100.00
2022-12-14T23:14:14.663Z,100.00
2022-12-14T23:16:40.988Z,100.00
2022-12-14T23:19:07.423Z,100.00
2022-12-14T23:21:33.732Z,100.00
2022-12-14T23:24:00.036Z,100.00
2022-12-14T23:26:26.517Z,100.00
2022-12-14T23:28:52.825Z,100.00
2022-12-14T23:31:19.221Z,100.00
2022-12-14T23:33:45.685Z,100.00
2022-12-14T23:36:12.235Z,100.00
2022-12-14T23:38:38.517Z,100.00
2022-12-14T23:41:05.020Z,100.00
2022-12-14T23:43:31.633Z,100.00
2022-12-14T23:45:58.754Z,100.00
2022-12-14T23:48:25.091Z,100.00
2022-12-14T23:50:51.667Z,100.00
2022-12-14T23:53:18.007Z,100.00
2022-12-14T23:55:44.302Z,100.00
2022-12-14T23:58:11.062Z,100.00
